createdAt,value
2023-07-08T00:00:14.298Z,46.49
2023-07-08T00:02:40.590Z,46.42
2023-07-08T00:05:06.904Z,46.55
2023-07-08T00:07:33.169Z,46.30
2023-07-08T00:09:59.443Z,46.28
2023-07-08T00:12:25.698Z,45.98
2023-07-08T00:14:51.984Z,45.67
2023-07-08T00:17:18.252Z,45.92
2023-07-08T00:19:44.514Z,46.27
2023-07-08T00:22:10.772Z,47.14
2023-07-08T00:24:37.069Z,46.72
2023-07-08T00:27:03.356Z,46.95
2023-07-08T00:29:29.609Z,46.36
2023-07-08T00:31:55.905Z,46.33
2023-07-08T00:34:22.196Z,46.72
2023-07-08T00:36:48.455Z,47.24
2023-07-08T00:39:14.828Z,47.00
2023-07-08T00:41:41.137Z,47.04
2023-07-08T00:44:07.423Z,47.39
2023-07-08T00:46:33.912Z,47.17
2023-07-08T00:49:00.300Z,47.51
2023-07-08T00:51:26.572Z,47.23
2023-07-08T00:53:52.866Z,47.46
2023-07-08T00:56:19.146Z,48.14
2023-07-08T00:58:45.413Z,47.66
2023-07-08T01:01:11.691Z,47.86
2023-07-08T01:03:38.081Z,47.98
2023-07-08T01:06:04.452Z,47.64
2023-07-08T01:08:30.744Z,48.04
2023-07-08T01:10:59.242Z,47.47
2023-07-08T01:13:27.047Z,47.06
2023-07-08T01:15:53.366Z,46.81
2023-07-08T01:18:19.673Z,46.99
2023-07-08T01:20:45.950Z,47.72
2023-07-08T01:23:12.243Z,47.76
2023-07-08T01:25:38.531Z,47.32
2023-07-08T01:28:04.860Z,47.22
2023-07-08T01:30:31.149Z,46.91
2023-07-08T01:32:57.532Z,47.79
2023-07-08T01:35:23.822Z,47.78
2023-07-08T01:37:50.075Z,47.72
2023-07-08T01:40:16.358Z,47.78
2023-07-08T01:42:42.630Z,47.58
2023-07-08T01:45:08.906Z,47.26
2023-07-08T01:47:35.226Z,47.42
2023-07-08T01:50:01.602Z,47.92
2023-07-08T01:52:27.931Z,47.78
2023-07-08T01:54:54.245Z,47.97
2023-07-08T01:57:20.519Z,48.23
2023-07-08T01:59:46.806Z,48.48
2023-07-08T02:02:13.067Z,47.85
2023-07-08T02:04:39.332Z,48.24
2023-07-08T02:07:05.616Z,48.63
2023-07-08T02:09:31.881Z,48.15
2023-07-08T02:11:58.189Z,47.83
2023-07-08T02:14:24.505Z,47.28
2023-07-08T02:16:50.833Z,47.77
2023-07-08T02:19:17.124Z,48.37
2023-07-08T02:21:43.409Z,48.06
2023-07-08T02:24:09.701Z,48.51
2023-07-08T02:26:35.975Z,48.41
2023-07-08T02:29:02.254Z,48.42
2023-07-08T02:31:28.641Z,48.19
2023-07-08T02:33:54.982Z,48.11
2023-07-08T02:36:21.275Z,47.81
2023-07-08T02:38:47.601Z,48.04
2023-07-08T02:41:13.891Z,47.78
2023-07-08T02:43:40.158Z,47.56
2023-07-08T02:46:06.486Z,47.63
2023-07-08T02:48:32.866Z,47.64
2023-07-08T02:50:59.456Z,47.20
2023-07-08T02:53:25.858Z,47.72
2023-07-08T02:55:52.139Z,48.20
2023-07-08T02:58:18.403Z,47.77
2023-07-08T03:00:44.683Z,48.09
2023-07-08T03:03:11.069Z,48.31
2023-07-08T03:05:37.464Z,48.24
2023-07-08T03:08:03.736Z,48.22
2023-07-08T03:10:30.006Z,48.08
2023-07-08T03:12:56.286Z,47.82
2023-07-08T03:15:22.554Z,48.05
2023-07-08T03:17:48.892Z,47.66
2023-07-08T03:20:15.235Z,47.75
2023-07-08T03:22:41.522Z,47.76
2023-07-08T03:25:07.766Z,48.17
2023-07-08T03:27:34.035Z,48.12
2023-07-08T03:30:00.331Z,47.87
2023-07-08T03:32:27.045Z,47.85
2023-07-08T03:34:53.378Z,47.95
2023-07-08T03:37:19.637Z,48.35
2023-07-08T03:39:45.913Z,48.45
2023-07-08T03:42:12.169Z,48.32
2023-07-08T03:44:38.451Z,48.30
2023-07-08T03:47:04.706Z,48.77
2023-07-08T03:49:30.983Z,48.20
2023-07-08T03:51:57.256Z,48.03
2023-07-08T03:54:23.557Z,47.90
2023-07-08T03:56:49.876Z,47.42
2023-07-08T03:59:16.340Z,47.53
2023-07-08T04:01:42.699Z,47.30
2023-07-08T04:04:09.192Z,47.03
2023-07-08T04:06:35.566Z,47.04
2023-07-08T04:09:01.815Z,47.74
2023-07-08T04:11:28.595Z,49.13
2023-07-08T04:13:54.888Z,49.84
2023-07-08T04:16:22.365Z,50.71
2023-07-08T04:18:48.678Z,50.71
2023-07-08T04:23:44.115Z,53.16
2023-07-08T04:26:10.409Z,53.11
2023-07-08T04:28:36.801Z,54.20
2023-07-08T04:31:03.344Z,55.28
2023-07-08T04:33:29.910Z,55.02
2023-07-08T04:35:56.180Z,55.84
2023-07-08T04:38:22.567Z,56.90
2023-07-08T04:40:48.955Z,58.19
2023-07-08T04:43:15.228Z,58.38
2023-07-08T04:45:41.516Z,58.51
2023-07-08T04:48:07.835Z,58.45
2023-07-08T04:50:34.144Z,58.89
2023-07-08T04:53:00.416Z,58.47
2023-07-08T04:55:26.701Z,58.17
2023-07-08T04:57:53.008Z,57.72
2023-07-08T05:00:19.294Z,57.62
2023-07-08T05:02:45.585Z,59.50
2023-07-08T05:05:11.873Z,60.14
2023-07-08T05:07:38.158Z,59.74
2023-07-08T05:10:04.434Z,58.93
2023-07-08T05:12:30.691Z,58.75
2023-07-08T05:14:56.968Z,58.41
2023-07-08T05:17:23.247Z,57.90
2023-07-08T05:19:49.533Z,57.79
2023-07-08T05:22:15.993Z,57.12
2023-07-08T05:24:42.268Z,56.75
2023-07-08T05:27:08.530Z,56.70
2023-07-08T05:29:34.799Z,55.71
2023-07-08T05:32:01.139Z,55.50
2023-07-08T05:34:27.416Z,55.03
2023-07-08T05:36:53.669Z,55.13
2023-07-08T05:39:19.959Z,54.66
2023-07-08T05:41:46.300Z,53.91
2023-07-08T05:44:12.699Z,53.68
2023-07-08T05:46:39.039Z,53.29
2023-07-08T05:49:05.329Z,53.46
2023-07-08T05:51:31.631Z,53.55
2023-07-08T05:53:57.918Z,53.31
2023-07-08T05:56:24.196Z,53.70
2023-07-08T05:58:50.502Z,53.62
2023-07-08T06:01:16.860Z,53.47
2023-07-08T06:03:43.278Z,53.40
2023-07-08T06:06:09.579Z,52.84
2023-07-08T06:08:35.883Z,52.96
2023-07-08T06:11:02.368Z,52.73
2023-07-08T06:13:28.906Z,52.54
2023-07-08T06:15:55.354Z,53.10
2023-07-08T06:18:21.725Z,53.79
2023-07-08T06:20:48.048Z,53.92
2023-07-08T06:23:14.330Z,53.92
2023-07-08T06:25:40.929Z,54.25
2023-07-08T06:28:07.279Z,54.19
2023-07-08T06:30:33.560Z,54.07
2023-07-08T06:33:01.547Z,54.76
2023-07-08T06:35:28.109Z,54.32
2023-07-08T06:37:54.390Z,53.08
2023-07-08T06:40:20.657Z,51.92
2023-07-08T06:42:46.964Z,51.64
2023-07-08T06:45:13.258Z,51.01
2023-07-08T06:47:39.620Z,50.92
2023-07-08T06:50:05.906Z,51.23
2023-07-08T06:52:32.164Z,51.16
2023-07-08T06:54:58.428Z,50.55
2023-07-08T06:57:24.690Z,51.10
2023-07-08T06:59:50.950Z,49.51
2023-07-08T07:02:17.203Z,49.19
2023-07-08T07:04:43.502Z,49.86
2023-07-08T07:07:09.867Z,49.82
2023-07-08T07:09:36.179Z,50.79
2023-07-08T07:12:02.460Z,50.59
2023-07-08T07:17:08.410Z,49.02
2023-07-08T07:19:35.622Z,49.60
2023-07-08T07:22:01.922Z,48.65
2023-07-08T07:24:28.196Z,47.18
2023-07-08T07:26:54.513Z,45.09
2023-07-08T07:29:20.773Z,44.97
2023-07-08T07:31:47.081Z,43.66
2023-07-08T07:34:13.437Z,43.55
2023-07-08T07:36:39.702Z,43.84
2023-07-08T07:39:05.974Z,43.48
2023-07-08T07:41:32.264Z,43.10
2023-07-08T07:43:58.530Z,43.88
2023-07-08T07:46:24.806Z,47.24
2023-07-08T07:48:51.089Z,45.35
2023-07-08T07:51:17.382Z,45.87
2023-07-08T07:53:43.680Z,43.74
2023-07-08T07:56:09.978Z,43.44
2023-07-08T07:58:36.293Z,45.25
2023-07-08T08:01:02.769Z,42.91
2023-07-08T08:03:29.235Z,42.48
2023-07-08T08:05:55.557Z,42.93
2023-07-08T08:08:21.809Z,42.02
2023-07-08T08:10:48.080Z,42.28
2023-07-08T08:13:14.499Z,41.28
2023-07-08T08:15:40.757Z,41.65
2023-07-08T08:18:07.083Z,43.67
2023-07-08T08:20:33.465Z,44.56
2023-07-08T08:22:59.754Z,43.03
2023-07-08T08:25:26.103Z,42.45
2023-07-08T08:27:52.422Z,42.98
2023-07-08T08:30:18.774Z,41.83
2023-07-08T08:32:45.125Z,44.04
2023-07-08T08:35:11.450Z,44.19
2023-07-08T08:37:37.738Z,41.97
2023-07-08T08:40:04.023Z,43.34
2023-07-08T08:42:30.304Z,43.80
2023-07-08T08:44:56.558Z,44.94
2023-07-08T08:47:22.871Z,45.52
2023-07-08T08:49:49.153Z,42.35
2023-07-08T08:52:15.461Z,42.44
2023-07-08T08:54:41.757Z,41.15
2023-07-08T08:57:09.171Z,42.13
2023-07-08T08:59:35.482Z,42.28
2023-07-08T09:02:01.816Z,42.79
2023-07-08T09:04:28.206Z,44.19
2023-07-08T09:06:54.534Z,41.93
2023-07-08T09:09:20.796Z,41.27
2023-07-08T09:11:47.062Z,41.13
2023-07-08T09:14:13.363Z,41.53
2023-07-08T09:16:39.757Z,41.37
2023-07-08T09:19:06.028Z,43.75
2023-07-08T09:21:32.311Z,42.10
2023-07-08T09:23:58.583Z,41.05
2023-07-08T09:26:24.874Z,40.09
2023-07-08T09:28:51.143Z,40.23
2023-07-08T09:31:17.486Z,39.20
2023-07-08T09:33:43.896Z,41.07
2023-07-08T09:36:10.184Z,41.92
2023-07-08T09:38:36.456Z,38.50
2023-07-08T09:41:03.007Z,37.98
2023-07-08T09:43:29.560Z,38.25
2023-07-08T09:45:55.846Z,39.84
2023-07-08T09:48:22.193Z,37.18
2023-07-08T09:50:48.499Z,37.13
2023-07-08T09:53:14.770Z,39.07
2023-07-08T09:55:41.089Z,38.40
2023-07-08T09:58:08.944Z,37.59
2023-07-08T10:00:35.306Z,39.67
2023-07-08T10:03:01.688Z,38.67
2023-07-08T10:05:28.022Z,38.31
2023-07-08T10:07:54.368Z,38.59
2023-07-08T10:10:20.682Z,37.23
2023-07-08T10:12:46.952Z,37.62
2023-07-08T10:15:13.247Z,38.94
2023-07-08T10:17:39.634Z,38.64
2023-07-08T10:20:05.928Z,38.79
2023-07-08T10:22:32.249Z,37.89
2023-07-08T10:24:58.572Z,37.21
2023-07-08T10:27:24.834Z,36.06
2023-07-08T10:29:51.121Z,36.72
2023-07-08T10:32:17.407Z,36.48
2023-07-08T10:34:43.689Z,35.93
2023-07-08T10:37:09.986Z,37.64
2023-07-08T10:39:36.294Z,36.66
2023-07-08T10:42:02.696Z,35.92
2023-07-08T10:44:28.967Z,36.44
2023-07-08T10:46:55.282Z,36.51
2023-07-08T10:49:21.544Z,35.38
2023-07-08T10:51:47.832Z,38.66
2023-07-08T10:54:14.110Z,33.81
2023-07-08T10:56:40.395Z,33.02
2023-07-08T10:59:07.221Z,33.25
2023-07-08T11:01:33.646Z,36.58
2023-07-08T11:04:00.620Z,36.92
2023-07-08T11:06:26.920Z,34.19
2023-07-08T11:08:53.228Z,35.54
2023-07-08T11:11:19.699Z,34.66
2023-07-08T11:13:46.186Z,35.27
2023-07-08T11:16:12.654Z,35.51
2023-07-08T11:18:38.936Z,36.73
2023-07-08T11:21:05.223Z,34.22
2023-07-08T11:23:31.515Z,37.07
2023-07-08T11:25:57.789Z,36.76
2023-07-08T11:28:24.080Z,36.58
2023-07-08T11:30:50.458Z,35.54
2023-07-08T11:33:16.822Z,34.32
2023-07-08T11:35:43.153Z,35.15
2023-07-08T11:38:09.443Z,34.78
2023-07-08T11:40:35.777Z,36.09
2023-07-08T11:43:02.089Z,36.10
2023-07-08T11:45:28.397Z,36.68
2023-07-08T11:47:54.810Z,34.36
2023-07-08T11:50:21.194Z,33.95
2023-07-08T11:52:47.512Z,33.40
2023-07-08T11:55:13.817Z,33.03
2023-07-08T11:57:40.123Z,32.75
2023-07-08T12:00:06.419Z,34.91
2023-07-08T12:02:32.819Z,33.28
2023-07-08T12:04:59.186Z,34.35
2023-07-08T12:07:25.468Z,34.62
2023-07-08T12:09:51.797Z,31.42
2023-07-08T12:12:18.089Z,31.76
2023-07-08T12:14:44.416Z,32.05
2023-07-08T12:17:10.808Z,32.67
2023-07-08T12:19:37.250Z,31.27
2023-07-08T12:22:03.516Z,31.00
2023-07-08T12:24:29.819Z,32.69
2023-07-08T12:26:56.115Z,31.32
2023-07-08T12:29:22.411Z,30.52
2023-07-08T12:31:48.708Z,32.97
2023-07-08T12:34:15.009Z,33.45
2023-07-08T12:36:41.326Z,32.47
2023-07-08T12:39:07.592Z,33.34
2023-07-08T12:41:33.890Z,30.75
2023-07-08T12:44:00.196Z,31.84
2023-07-08T12:46:26.525Z,31.30
2023-07-08T12:48:52.904Z,31.76
2023-07-08T12:51:19.179Z,31.34
2023-07-08T12:53:45.456Z,30.78
2023-07-08T12:56:11.857Z,31.36
2023-07-08T12:58:38.185Z,31.09
2023-07-08T13:01:04.697Z,30.53
2023-07-08T13:03:31.345Z,30.64
2023-07-08T13:05:57.762Z,31.63
2023-07-08T13:08:24.031Z,29.71
2023-07-08T13:10:50.344Z,29.48
2023-07-08T13:13:16.698Z,29.75
2023-07-08T13:15:42.996Z,30.29
2023-07-08T13:18:09.406Z,28.22
2023-07-08T13:20:35.765Z,28.25
2023-07-08T13:23:02.130Z,28.43
2023-07-08T13:25:28.534Z,27.80
2023-07-08T13:27:54.834Z,29.46
2023-07-08T13:30:21.098Z,28.80
2023-07-08T13:32:47.545Z,29.58
2023-07-08T13:35:13.853Z,27.55
2023-07-08T13:37:40.128Z,28.26
2023-07-08T13:40:06.410Z,27.75
2023-07-08T13:42:32.777Z,27.28
2023-07-08T13:44:59.074Z,27.88
2023-07-08T13:47:25.366Z,27.66
2023-07-08T13:49:51.664Z,28.88
2023-07-08T13:52:17.956Z,26.71
2023-07-08T13:54:44.231Z,27.36
2023-07-08T13:57:10.528Z,25.67
2023-07-08T13:59:36.830Z,25.73
2023-07-08T14:02:03.261Z,26.07
2023-07-08T14:04:29.621Z,26.33
2023-07-08T14:06:55.915Z,25.21
2023-07-08T14:09:22.238Z,25.79
2023-07-08T14:11:48.538Z,25.74
2023-07-08T14:14:14.816Z,26.00
2023-07-08T14:16:41.110Z,26.13
2023-07-08T14:19:07.415Z,24.59
2023-07-08T14:21:33.703Z,25.68
2023-07-08T14:23:59.986Z,26.67
2023-07-08T14:26:26.333Z,25.64
2023-07-08T14:28:52.636Z,26.40
2023-07-08T14:31:18.936Z,26.44
2023-07-08T14:33:45.255Z,26.40
2023-07-08T14:36:11.536Z,25.79
2023-07-08T14:38:37.814Z,25.28
2023-07-08T14:41:04.129Z,24.67
2023-07-08T14:43:30.410Z,24.77
2023-07-08T14:45:56.823Z,24.04
2023-07-08T14:48:24.839Z,24.61
2023-07-08T14:50:52.465Z,24.71
2023-07-08T14:53:18.777Z,25.41
2023-07-08T14:55:45.102Z,25.13
2023-07-08T14:58:11.399Z,24.64
2023-07-08T15:00:37.672Z,25.51
2023-07-08T15:03:04.001Z,25.62
2023-07-08T15:05:30.351Z,25.84
2023-07-08T15:07:56.635Z,25.03
2023-07-08T15:10:22.897Z,26.13
2023-07-08T15:12:49.194Z,26.12
2023-07-08T15:15:15.496Z,25.31
2023-07-08T15:17:41.928Z,25.54
2023-07-08T15:20:08.270Z,25.52
2023-07-08T15:22:34.545Z,25.03
2023-07-08T15:25:00.846Z,25.41
2023-07-08T15:27:27.131Z,26.61
2023-07-08T15:29:53.421Z,27.18
2023-07-08T15:32:40.050Z,25.99
2023-07-08T15:35:05.961Z,26.44
2023-07-08T15:37:32.271Z,27.55
2023-07-08T15:39:58.564Z,27.50
2023-07-08T15:42:24.924Z,28.47
2023-07-08T15:44:51.215Z,27.82
2023-07-08T15:47:17.564Z,27.05
2023-07-08T15:49:43.918Z,26.45
2023-07-08T15:52:10.319Z,26.44
2023-07-08T15:54:36.614Z,25.48
2023-07-08T15:57:02.900Z,25.74
2023-07-08T15:59:29.183Z,26.40
2023-07-08T16:01:55.457Z,25.97
2023-07-08T16:04:21.726Z,26.98
2023-07-08T16:06:48.000Z,25.64
2023-07-08T16:09:14.280Z,26.19
2023-07-08T16:11:40.547Z,26.31
2023-07-08T16:14:06.905Z,26.84
2023-07-08T16:16:33.252Z,25.91
2023-07-08T16:18:59.541Z,25.48
2023-07-08T16:21:25.826Z,25.15
2023-07-08T16:23:52.132Z,25.72
2023-07-08T16:26:18.421Z,26.10
2023-07-08T16:28:44.715Z,25.95
2023-07-08T16:31:11.010Z,26.05
2023-07-08T16:33:37.362Z,25.90
2023-07-08T16:36:03.662Z,26.21
2023-07-08T16:38:30.015Z,25.95
2023-07-08T16:40:56.268Z,25.45
2023-07-08T16:43:22.592Z,26.36
2023-07-08T16:45:48.850Z,25.60
2023-07-08T16:48:15.153Z,25.41
2023-07-08T16:50:41.470Z,25.25
2023-07-08T16:53:07.762Z,26.13
2023-07-08T16:55:34.037Z,26.70
2023-07-08T16:58:00.334Z,26.67
2023-07-08T17:00:26.622Z,26.59
2023-07-08T17:02:52.979Z,26.06
2023-07-08T17:05:19.307Z,26.69
2023-07-08T17:07:45.584Z,26.62
2023-07-08T17:10:11.920Z,27.21
2023-07-08T17:12:38.239Z,26.91
2023-07-08T17:15:04.490Z,26.75
2023-07-08T17:17:30.757Z,26.48
2023-07-08T17:19:57.083Z,26.46
2023-07-08T17:22:23.396Z,26.91
2023-07-08T17:24:49.691Z,26.66
2023-07-08T17:27:15.971Z,26.76
2023-07-08T17:29:42.256Z,26.49
2023-07-08T17:32:08.585Z,27.32
2023-07-08T17:34:34.933Z,27.82
2023-07-08T17:37:01.208Z,27.59
2023-07-08T17:39:27.463Z,26.92
2023-07-08T17:41:54.391Z,27.64
2023-07-08T17:44:21.568Z,30.57
2023-07-08T17:46:47.922Z,28.53
2023-07-08T17:49:14.285Z,28.44
2023-07-08T17:51:40.589Z,29.67
2023-07-08T17:54:06.894Z,30.71
2023-07-08T17:56:33.173Z,31.01
2023-07-08T17:58:59.460Z,32.71
2023-07-08T18:01:25.785Z,32.10
2023-07-08T18:03:52.200Z,31.76
2023-07-08T18:06:18.520Z,32.41
2023-07-08T18:08:44.820Z,32.76
2023-07-08T18:11:11.096Z,32.81
2023-07-08T18:13:37.506Z,32.89
2023-07-08T18:16:04.094Z,33.80
2023-07-08T18:18:30.655Z,33.84
2023-07-08T18:20:57.014Z,34.38
2023-07-08T18:23:23.326Z,33.64
2023-07-08T18:25:49.629Z,33.55
2023-07-08T18:28:15.921Z,34.36
2023-07-08T18:30:42.225Z,34.35
2023-07-08T18:33:08.578Z,34.66
2023-07-08T18:35:36.488Z,34.01
2023-07-08T18:38:02.807Z,34.11
2023-07-08T18:40:29.092Z,34.71
2023-07-08T18:42:55.411Z,35.37
2023-07-08T18:45:21.710Z,35.72
2023-07-08T18:47:48.093Z,36.21
2023-07-08T18:50:15.893Z,36.22
2023-07-08T18:52:42.214Z,36.31
2023-07-08T18:55:08.493Z,36.41
2023-07-08T18:57:34.784Z,36.51
2023-07-08T19:00:01.062Z,36.22
2023-07-08T19:02:27.429Z,36.29
2023-07-08T19:04:53.730Z,36.53
2023-07-08T19:07:20.032Z,37.03
2023-07-08T19:09:46.328Z,37.25
2023-07-08T19:12:12.625Z,37.51
2023-07-08T19:14:38.939Z,37.31
2023-07-08T19:17:05.249Z,37.39
2023-07-08T19:19:31.549Z,37.47
2023-07-08T19:21:57.813Z,37.09
2023-07-08T19:24:36.937Z,36.78
2023-07-08T19:27:04.258Z,36.60
2023-07-08T19:29:30.533Z,37.07
2023-07-08T19:31:56.795Z,37.40
2023-07-08T19:34:23.108Z,37.66
2023-07-08T19:36:49.424Z,37.80
2023-07-08T19:39:15.728Z,38.13
2023-07-08T19:41:42.017Z,37.71
2023-07-08T19:44:08.299Z,37.62
2023-07-08T19:46:34.637Z,37.43
2023-07-08T19:49:00.969Z,37.57
2023-07-08T19:51:27.254Z,37.41
2023-07-08T19:53:53.545Z,37.34
2023-07-08T19:56:19.856Z,37.34
2023-07-08T19:58:46.279Z,37.69
2023-07-08T20:01:12.541Z,37.25
2023-07-08T20:03:38.963Z,37.45
2023-07-08T20:06:05.427Z,37.55
2023-07-08T20:08:31.905Z,37.21
2023-07-08T20:10:58.170Z,37.19
2023-07-08T20:13:24.524Z,37.28
2023-07-08T20:15:51.470Z,36.84
2023-07-08T20:18:17.725Z,36.90
2023-07-08T20:20:43.997Z,36.48
2023-07-08T20:23:10.298Z,36.99
2023-07-08T20:25:36.609Z,37.03
2023-07-08T20:28:02.878Z,37.63
2023-07-08T20:30:29.180Z,37.50
2023-07-08T20:32:55.615Z,36.80
2023-07-08T20:35:21.926Z,36.95
2023-07-08T20:37:48.212Z,36.92
2023-07-08T20:40:14.866Z,36.73
2023-07-08T20:42:41.200Z,36.68
2023-07-08T20:45:07.499Z,36.98
2023-07-08T20:47:33.828Z,36.78
2023-07-08T20:50:00.203Z,36.71
2023-07-08T20:52:26.504Z,36.73
2023-07-08T20:54:52.757Z,36.59
2023-07-08T20:57:19.249Z,36.49
2023-07-08T20:59:45.556Z,36.56
2023-07-08T21:02:11.853Z,37.37
2023-07-08T21:04:38.130Z,36.97
2023-07-08T21:07:04.415Z,36.92
2023-07-08T21:09:30.705Z,36.70
2023-07-08T21:11:56.992Z,36.94
2023-07-08T21:14:24.504Z,36.98
2023-07-08T21:16:50.977Z,37.07
2023-07-08T21:19:17.343Z,37.28
2023-07-08T21:21:43.622Z,37.19
2023-07-08T21:24:09.921Z,36.81
2023-07-08T21:26:36.239Z,36.87
2023-07-08T21:29:02.547Z,36.83
2023-07-08T21:31:28.842Z,36.61
2023-07-08T21:33:55.149Z,36.49
2023-07-08T21:36:21.440Z,36.72
2023-07-08T21:38:47.752Z,36.58
2023-07-08T21:41:14.024Z,36.75
2023-07-08T21:43:40.293Z,36.87
2023-07-08T21:46:06.860Z,36.49
2023-07-08T21:48:33.254Z,36.71
2023-07-08T21:50:59.525Z,36.47
2023-07-08T21:53:25.789Z,36.51
2023-07-08T21:55:52.062Z,37.00
2023-07-08T21:58:18.368Z,37.09
2023-07-08T22:00:44.635Z,36.94
2023-07-08T22:03:10.949Z,37.08
2023-07-08T22:05:37.423Z,37.52
2023-07-08T22:08:03.718Z,37.18
2023-07-08T22:10:30.051Z,37.05
2023-07-08T22:12:56.356Z,37.06
2023-07-08T22:15:22.718Z,36.53
2023-07-08T22:17:49.153Z,36.92
2023-07-08T22:20:15.552Z,36.83
2023-07-08T22:22:41.852Z,37.63
2023-07-08T22:25:08.157Z,36.34
2023-07-08T22:27:34.434Z,36.67
2023-07-08T22:30:00.716Z,36.66
2023-07-08T22:32:27.020Z,36.91
2023-07-08T22:34:53.335Z,36.41
2023-07-08T22:37:19.614Z,36.60
2023-07-08T22:39:45.904Z,36.09
2023-07-08T22:42:12.165Z,35.93
2023-07-08T22:44:38.417Z,36.27
2023-07-08T22:47:04.772Z,36.45
2023-07-08T22:49:31.091Z,36.34
2023-07-08T22:51:57.381Z,36.26
2023-07-08T22:54:23.649Z,36.61
2023-07-08T22:56:49.936Z,36.28
2023-07-08T22:59:16.230Z,36.42
2023-07-08T23:01:42.534Z,36.01
2023-07-08T23:04:09.082Z,36.34
2023-07-08T23:06:35.631Z,36.08
2023-07-08T23:09:02.026Z,36.20
2023-07-08T23:11:28.299Z,36.34
2023-07-08T23:13:54.697Z,36.17
2023-07-08T23:16:21.144Z,36.37
2023-07-08T23:18:47.493Z,36.30
2023-07-08T23:21:13.783Z,36.50
2023-07-08T23:23:40.071Z,36.61
2023-07-08T23:26:06.370Z,36.44
2023-07-08T23:28:32.643Z,36.75
2023-07-08T23:30:58.925Z,36.76
2023-07-08T23:33:25.217Z,36.42
2023-07-08T23:35:51.509Z,36.95
2023-07-08T23:38:17.816Z,37.35
2023-07-08T23:40:44.122Z,37.23
2023-07-08T23:43:10.386Z,37.78
2023-07-08T23:45:36.663Z,37.33
2023-07-08T23:48:03.004Z,37.24
2023-07-08T23:50:29.306Z,37.53
2023-07-08T23:52:55.573Z,37.30
2023-07-08T23:55:21.844Z,37.23
2023-07-08T23:57:48.142Z,37.67
